sensor_id;sensor_type;location;lat;lon;timestamp;pressure;altitude;pressure_sealevel;temperature;humidity
21111;BME280;10713;51.912;4.494;2023-04-01T00:00:28;99150.59;;;9.69;100.00
21111;BME280;10713;51.912;4.494;2023-04-01T00:02:53;99142.50;;;9.72;100.00
21111;BME280;10713;51.912;4.494;2023-04-01T00:05:19;99148.53;;;9.74;100.00
21111;BME280;10713;51.912;4.494;2023-04-01T00:07:45;99154.25;;;9.66;100.00
21111;BME280;10713;51.912;4.494;2023-04-01T00:10:12;99150.91;;;9.64;100.00
21111;BME280;10713;51.912;4.494;2023-04-01T00:12:39;99154.44;;;9.63;100.00
21111;BME280;10713;51.912;4.494;2023-04-01T00:15:07;99157.28;;;9.60;100.00
21111;BME280;10713;51.912;4.494;2023-04-01T00:17:33;99156.31;;;9.61;100.00
21111;BME280;10713;51.912;4.494;2023-04-01T00:19:59;99158.03;;;9.62;100.00
21111;BME280;10713;51.912;4.494;2023-04-01T00:22:25;99166.69;;;9.64;100.00
21111;BME280;10713;51.912;4.494;2023-04-01T00:24:51;99161.72;;;9.60;100.00
21111;BME280;10713;51.912;4.494;2023-04-01T00:27:17;99159.25;;;9.57;100.00
21111;BME280;10713;51.912;4.494;2023-04-01T00:29:43;99161.13;;;9.55;100.00
21111;BME280;10713;51.912;4.494;2023-04-01T00:32:09;99163.56;;;9.58;100.00
21111;BME280;10713;51.912;4.494;2023-04-01T00:34:35;99166.97;;;9.60;100.00
21111;BME280;10713;51.912;4.494;2023-04-01T00:37:00;99169.50;;;9.61;100.00
21111;BME280;10713;51.912;4.494;2023-04-01T00:39:29;99176.28;;;9.65;100.00
21111;BME280;10713;51.912;4.494;2023-04-01T00:41:54;99174.31;;;9.69;100.00
21111;BME280;10713;51.912;4.494;2023-04-01T00:44:28;99172.31;;;9.58;100.00
21111;BME280;10713;51.912;4.494;2023-04-01T00:46:55;99181.19;;;9.57;100.00
21111;BME280;10713;51.912;4.494;2023-04-01T00:49:27;99184.84;;;9.55;100.00
21111;BME280;10713;51.912;4.494;2023-04-01T00:51:55;99189.00;;;9.59;100.00
21111;BME280;10713;51.912;4.494;2023-04-01T00:54:24;99188.81;;;9.62;100.00
21111;BME280;10713;51.912;4.494;2023-04-01T00:57:00;99193.31;;;9.60;100.00
21111;BME280;10713;51.912;4.494;2023-04-01T00:59:33;99187.22;;;9.59;100.00
21111;BME280;10713;51.912;4.494;2023-04-01T01:02:04;99198.66;;;9.58;100.00
21111;BME280;10713;51.912;4.494;2023-04-01T01:04:33;99195.13;;;9.59;100.00
21111;BME280;10713;51.912;4.494;2023-04-01T01:10:15;99207.53;;;9.57;100.00
21111;BME280;10713;51.912;4.494;2023-04-01T01:15:28;99206.38;;;9.61;100.00
21111;BME280;10713;51.912;4.494;2023-04-01T01:18:09;99214.41;;;9.60;100.00
21111;BME280;10713;51.912;4.494;2023-04-01T01:23:23;99201.13;;;9.61;100.00
21111;BME280;10713;51.912;4.494;2023-04-01T01:31:54;99214.19;;;9.63;100.00
21111;BME280;10713;51.912;4.494;2023-04-01T01:37:25;99213.56;;;9.59;100.00
21111;BME280;10713;51.912;4.494;2023-04-01T01:40:07;99218.81;;;9.59;100.00
21111;BME280;10713;51.912;4.494;2023-04-01T01:42:37;99222.94;;;9.63;100.00
21111;BME280;10713;51.912;4.494;2023-04-01T01:45:06;99225.59;;;9.63;100.00
21111;BME280;10713;51.912;4.494;2023-04-01T01:47:33;99225.59;;;9.63;100.00
21111;BME280;10713;51.912;4.494;2023-04-01T01:49:59;99223.97;;;9.61;100.00
21111;BME280;10713;51.912;4.494;2023-04-01T01:52:27;99235.53;;;9.58;100.00
21111;BME280;10713;51.912;4.494;2023-04-01T01:54:55;99241.13;;;9.54;100.00
21111;BME280;10713;51.912;4.494;2023-04-01T01:57:28;99233.41;;;9.51;100.00
21111;BME280;10713;51.912;4.494;2023-04-01T01:59:58;99235.19;;;9.50;100.00
21111;BME280;10713;51.912;4.494;2023-04-01T02:02:25;99245.72;;;9.50;100.00
21111;BME280;10713;51.912;4.494;2023-04-01T02:04:52;99249.94;;;9.53;100.00
21111;BME280;10713;51.912;4.494;2023-04-01T02:07:31;99255.19;;;9.53;100.00
21111;BME280;10713;51.912;4.494;2023-04-01T02:09:59;99254.56;;;9.49;100.00
21111;BME280;10713;51.912;4.494;2023-04-01T02:12:25;99253.91;;;9.45;100.00
21111;BME280;10713;51.912;4.494;2023-04-01T02:17:19;99259.94;;;9.47;100.00
21111;BME280;10713;51.912;4.494;2023-04-01T02:19:50;99261.03;;;9.43;100.00
21111;BME280;10713;51.912;4.494;2023-04-01T02:22:21;99271.56;;;9.43;100.00
21111;BME280;10713;51.912;4.494;2023-04-01T02:24:49;99275.16;;;9.42;100.00
21111;BME280;10713;51.912;4.494;2023-04-01T02:27:16;99271.31;;;9.48;100.00
21111;BME280;10713;51.912;4.494;2023-04-01T02:29:41;99270.47;;;9.47;100.00
21111;BME280;10713;51.912;4.494;2023-04-01T02:32:08;99282.75;;;9.47;100.00
21111;BME280;10713;51.912;4.494;2023-04-01T02:34:34;99279.38;;;9.45;100.00
21111;BME280;10713;51.912;4.494;2023-04-01T02:37:01;99285.25;;;9.50;100.00
21111;BME280;10713;51.912;4.494;2023-04-01T02:39:26;99279.97;;;9.50;100.00
21111;BME280;10713;51.912;4.494;2023-04-01T02:41:52;99282.69;;;9.48;100.00
21111;BME280;10713;51.912;4.494;2023-04-01T02:44:18;99288.13;;;9.45;100.00
21111;BME280;10713;51.912;4.494;2023-04-01T02:46:43;99281.00;;;9.47;100.00
21111;BME280;10713;51.912;4.494;2023-04-01T02:49:09;99292.00;;;9.54;100.00
21111;BME280;10713;51.912;4.494;2023-04-01T02:51:35;99292.97;;;9.53;100.00
21111;BME280;10713;51.912;4.494;2023-04-01T02:54:00;99295.94;;;9.47;100.00
21111;BME280;10713;51.912;4.494;2023-04-01T02:56:26;99296.13;;;9.44;100.00
21111;BME280;10713;51.912;4.494;2023-04-01T02:58:53;99301.19;;;9.47;100.00
21111;BME280;10713;51.912;4.494;2023-04-01T03:01:18;99308.94;;;9.50;100.00
21111;BME280;10713;51.912;4.494;2023-04-01T03:03:44;99304.53;;;9.51;100.00
21111;BME280;10713;51.912;4.494;2023-04-01T03:06:13;99308.94;;;9.50;100.00
21111;BME280;10713;51.912;4.494;2023-04-01T03:08:38;99313.16;;;9.53;100.00
21111;BME280;10713;51.912;4.494;2023-04-01T03:11:04;99323.63;;;9.54;100.00
21111;BME280;10713;51.912;4.494;2023-04-01T03:13:30;99324.47;;;9.55;100.00
21111;BME280;10713;51.912;4.494;2023-04-01T03:15:56;99327.84;;;9.57;100.00
21111;BME280;10713;51.912;4.494;2023-04-01T03:18:21;99334.19;;;9.68;100.00
21111;BME280;10713;51.912;4.494;2023-04-01T03:20:47;99336.81;;;9.68;100.00
21111;BME280;10713;51.912;4.494;2023-04-01T03:23:12;99345.16;;;9.61;100.00
21111;BME280;10713;51.912;4.494;2023-04-01T03:25:38;99345.34;;;9.58;100.00
21111;BME280;10713;51.912;4.494;2023-04-01T03:28:04;99349.59;;;9.60;100.00
21111;BME280;10713;51.912;4.494;2023-04-01T03:30:30;99365.88;;;9.67;100.00
21111;BME280;10713;51.912;4.494;2023-04-01T03:32:57;99356.94;;;9.69;100.00
21111;BME280;10713;51.912;4.494;2023-04-01T03:35:23;99366.97;;;9.79;100.00
21111;BME280;10713;51.912;4.494;2023-04-01T03:37:50;99370.16;;;9.84;100.00
21111;BME280;10713;51.912;4.494;2023-04-01T03:40:16;99362.44;;;9.81;100.00
21111;BME280;10713;51.912;4.494;2023-04-01T03:42:42;99371.53;;;9.75;100.00
21111;BME280;10713;51.912;4.494;2023-04-01T03:45:07;99374.88;;;9.79;100.00
21111;BME280;10713;51.912;4.494;2023-04-01T03:47:33;99380.44;;;9.88;100.00
21111;BME280;10713;51.912;4.494;2023-04-01T03:49:58;99378.75;;;9.87;100.00
21111;BME280;10713;51.912;4.494;2023-04-01T03:52:24;99381.00;;;9.93;100.00
21111;BME280;10713;51.912;4.494;2023-04-01T03:54:49;99394.19;;;9.93;100.00
21111;BME280;10713;51.912;4.494;2023-04-01T03:57:15;99390.78;;;9.91;100.00
21111;BME280;10713;51.912;4.494;2023-04-01T03:59:40;99398.13;;;9.86;100.00
21111;BME280;10713;51.912;4.494;2023-04-01T04:02:05;99400.94;;;9.83;100.00
21111;BME280;10713;51.912;4.494;2023-04-01T04:04:31;99407.94;;;9.84;100.00
21111;BME280;10713;51.912;4.494;2023-04-01T04:06:57;99413.84;;;9.88;100.00
21111;BME280;10713;51.912;4.494;2023-04-01T04:09:23;99412.25;;;9.85;100.00
21111;BME280;10713;51.912;4.494;2023-04-01T04:11:49;99416.56;;;9.86;100.00
21111;BME280;10713;51.912;4.494;2023-04-01T04:14:15;99423.38;;;9.90;100.00
21111;BME280;10713;51.912;4.494;2023-04-01T04:16:40;99425.72;;;9.95;100.00
21111;BME280;10713;51.912;4.494;2023-04-01T04:19:06;99429.03;;;9.99;100.00
21111;BME280;10713;51.912;4.494;2023-04-01T04:21:31;99430.91;;;9.97;100.00
21111;BME280;10713;51.912;4.494;2023-04-01T04:23:58;99439.75;;;9.96;100.00
21111;BME280;10713;51.912;4.494;2023-04-01T04:26:24;99442.97;;;10.01;100.00
21111;BME280;10713;51.912;4.494;2023-04-01T04:28:50;99446.25;;;10.04;100.00
21111;BME280;10713;51.912;4.494;2023-04-01T04:31:20;99449.78;;;10.05;100.00
21111;BME280;10713;51.912;4.494;2023-04-01T04:33:46;99454.16;;;10.04;100.00
21111;BME280;10713;51.912;4.494;2023-04-01T04:36:11;99451.72;;;10.01;100.00
21111;BME280;10713;51.912;4.494;2023-04-01T04:38:37;99454.09;;;10.06;100.00
21111;BME280;10713;51.912;4.494;2023-04-01T04:41:02;99460.22;;;10.06;100.00
21111;BME280;10713;51.912;4.494;2023-04-01T04:43:28;99463.69;;;10.07;100.00
21111;BME280;10713;51.912;4.494;2023-04-01T04:45:53;99465.41;;;10.08;100.00
21111;BME280;10713;51.912;4.494;2023-04-01T04:48:19;99466.53;;;10.18;100.00
21111;BME280;10713;51.912;4.494;2023-04-01T04:50:49;99470.88;;;10.19;100.00
21111;BME280;10713;51.912;4.494;2023-04-01T04:53:17;99485.69;;;10.22;100.00
21111;BME280;10713;51.912;4.494;2023-04-01T04:55:44;99485.94;;;10.17;100.00
21111;BME280;10713;51.912;4.494;2023-04-01T04:58:10;99483.69;;;10.11;100.00
21111;BME280;10713;51.912;4.494;2023-04-01T05:00:36;99489.97;;;10.08;100.00
21111;BME280;10713;51.912;4.494;2023-04-01T05:03:01;99504.78;;;10.11;100.00
21111;BME280;10713;51.912;4.494;2023-04-01T05:05:26;99497.88;;;10.08;100.00
21111;BME280;10713;51.912;4.494;2023-04-01T05:07:52;99504.19;;;10.06;100.00
21111;BME280;10713;51.912;4.494;2023-04-01T05:10:17;99506.38;;;10.13;100.00
21111;BME280;10713;51.912;4.494;2023-04-01T05:12:43;99513.56;;;10.26;100.00
21111;BME280;10713;51.912;4.494;2023-04-01T05:15:08;99515.91;;;10.16;100.00
21111;BME280;10713;51.912;4.494;2023-04-01T05:17:34;99522.75;;;10.19;100.00
21111;BME280;10713;51.912;4.494;2023-04-01T05:19:59;99527.00;;;10.21;100.00
21111;BME280;10713;51.912;4.494;2023-04-01T05:22:25;99529.38;;;10.26;100.00
21111;BME280;10713;51.912;4.494;2023-04-01T05:24:51;99534.00;;;10.22;100.00
21111;BME280;10713;51.912;4.494;2023-04-01T05:27:16;99533.41;;;10.17;100.00
21111;BME280;10713;51.912;4.494;2023-04-01T05:29:42;99536.47;;;10.09;100.00
21111;BME280;10713;51.912;4.494;2023-04-01T05:32:07;99545.41;;;10.07;100.00
21111;BME280;10713;51.912;4.494;2023-04-01T05:34:32;99554.69;;;10.14;100.00
21111;BME280;10713;51.912;4.494;2023-04-01T05:36:58;99554.88;;;10.11;100.00
21111;BME280;10713;51.912;4.494;2023-04-01T05:39:23;99561.00;;;10.11;100.00
21111;BME280;10713;51.912;4.494;2023-04-01T05:41:49;99564.88;;;10.20;100.00
21111;BME280;10713;51.912;4.494;2023-04-01T05:44:14;99570.91;;;10.22;100.00
21111;BME280;10713;51.912;4.494;2023-04-01T05:46:40;99569.03;;;10.24;100.00
21111;BME280;10713;51.912;4.494;2023-04-01T05:49:06;99576.28;;;10.21;100.00
21111;BME280;10713;51.912;4.494;2023-04-01T05:51:31;99580.53;;;10.23;100.00
21111;BME280;10713;51.912;4.494;2023-04-01T05:53:57;99583.34;;;10.20;100.00
21111;BME280;10713;51.912;4.494;2023-04-01T05:56:22;99592.44;;;10.14;100.00
21111;BME280;10713;51.912;4.494;2023-04-01T05:58:52;99598.75;;;10.12;100.00
21111;BME280;10713;51.912;4.494;2023-04-01T06:01:18;99599.09;;;10.06;100.00
21111;BME280;10713;51.912;4.494;2023-04-01T06:03:44;99605.88;;;10.10;100.00
21111;BME280;10713;51.912;4.494;2023-04-01T06:06:23;99610.25;;;10.11;100.00
21111;BME280;10713;51.912;4.494;2023-04-01T06:08:48;99617.13;;;10.13;100.00
21111;BME280;10713;51.912;4.494;2023-04-01T06:30:16;99663.41;;;10.03;100.00
21111;BME280;10713;51.912;4.494;2023-04-01T06:41:01;99665.09;;;10.20;100.00
21111;BME280;10713;51.912;4.494;2023-04-01T06:43:47;99666.88;;;10.35;100.00
21111;BME280;10713;51.912;4.494;2023-04-01T06:49:04;99669.56;;;10.50;100.00
21111;BME280;10713;51.912;4.494;2023-04-01T06:51:47;99676.03;;;10.60;100.00
21111;BME280;10713;51.912;4.494;2023-04-01T06:54:20;99679.94;;;10.69;100.00
21111;BME280;10713;51.912;4.494;2023-04-01T06:56:51;99679.63;;;10.59;100.00
21111;BME280;10713;51.912;4.494;2023-04-01T06:59:25;99686.94;;;10.54;100.00
21111;BME280;10713;51.912;4.494;2023-04-01T07:02:05;99690.06;;;10.60;100.00
21111;BME280;10713;51.912;4.494;2023-04-01T07:04:40;99692.53;;;10.64;100.00
21111;BME280;10713;51.912;4.494;2023-04-01T07:07:14;99697.81;;;10.64;100.00
21111;BME280;10713;51.912;4.494;2023-04-01T07:09:43;99698.75;;;10.63;100.00
21111;BME280;10713;51.912;4.494;2023-04-01T07:12:28;99706.41;;;10.67;100.00
21111;BME280;10713;51.912;4.494;2023-04-01T07:15:51;99704.00;;;10.78;100.00
21111;BME280;10713;51.912;4.494;2023-04-01T07:18:16;99717.59;;;10.87;100.00
21111;BME280;10713;51.912;4.494;2023-04-01T07:20:44;99721.63;;;10.78;100.00
21111;BME280;10713;51.912;4.494;2023-04-01T07:23:25;99719.44;;;10.70;100.00
21111;BME280;10713;51.912;4.494;2023-04-01T07:26:06;99718.31;;;10.74;100.00
21111;BME280;10713;51.912;4.494;2023-04-01T07:28:36;99725.66;;;10.69;100.00
21111;BME280;10713;51.912;4.494;2023-04-01T07:47:34;99751.56;;;10.93;100.00
21111;BME280;10713;51.912;4.494;2023-04-01T07:55:02;99752.50;;;10.92;100.00
21111;BME280;10713;51.912;4.494;2023-04-01T07:57:53;99772.13;;;10.88;100.00
21111;BME280;10713;51.912;4.494;2023-04-01T08:00:27;99765.13;;;10.87;100.00
21111;BME280;10713;51.912;4.494;2023-04-01T08:05:55;99777.31;;;11.19;100.00
21111;BME280;10713;51.912;4.494;2023-04-01T08:16:41;99793.25;;;10.72;100.00
21111;BME280;10713;51.912;4.494;2023-04-01T08:21:47;99804.72;;;10.87;100.00
21111;BME280;10713;51.912;4.494;2023-04-01T08:24:23;99808.47;;;10.82;100.00
21111;BME280;10713;51.912;4.494;2023-04-01T08:26:53;99810.41;;;10.95;100.00
21111;BME280;10713;51.912;4.494;2023-04-01T08:29:26;99805.41;;;10.90;100.00
21111;BME280;10713;51.912;4.494;2023-04-01T08:32:13;99817.31;;;10.97;100.00
21111;BME280;10713;51.912;4.494;2023-04-01T08:34:46;99819.06;;;11.13;100.00
21111;BME280;10713;51.912;4.494;2023-04-01T08:37:21;99827.31;;;11.22;100.00
21111;BME280;10713;51.912;4.494;2023-04-01T08:39:51;99824.56;;;11.24;100.00
21111;BME280;10713;51.912;4.494;2023-04-01T08:48:47;99837.13;;;11.20;100.00
21111;BME280;10713;51.912;4.494;2023-04-01T09:00:11;99847.91;;;11.32;100.00
21111;BME280;10713;51.912;4.494;2023-04-01T09:02:51;99851.75;;;11.42;100.00
21111;BME280;10713;51.912;4.494;2023-04-01T09:05:39;99854.56;;;11.53;100.00
21111;BME280;10713;51.912;4.494;2023-04-01T09:13:51;99867.75;;;11.69;100.00
21111;BME280;10713;51.912;4.494;2023-04-01T09:19:17;99875.38;;;11.59;100.00
21111;BME280;10713;51.912;4.494;2023-04-01T09:22:05;99872.56;;;11.62;100.00
21111;BME280;10713;51.912;4.494;2023-04-01T09:24:42;99873.72;;;11.42;100.00
21111;BME280;10713;51.912;4.494;2023-04-01T09:27:26;99874.75;;;11.40;100.00
21111;BME280;10713;51.912;4.494;2023-04-01T09:52:03;99896.78;;;11.55;100.00
21111;BME280;10713;51.912;4.494;2023-04-01T10:09:19;99916.56;;;11.93;100.00
21111;BME280;10713;51.912;4.494;2023-04-01T10:14:33;99920.75;;;12.12;100.00
21111;BME280;10713;51.912;4.494;2023-04-01T10:25:05;99929.34;;;12.15;100.00
21111;BME280;10713;51.912;4.494;2023-04-01T10:36:09;99935.78;;;12.11;100.00
21111;BME280;10713;51.912;4.494;2023-04-01T10:39:00;99944.06;;;11.75;100.00
21111;BME280;10713;51.912;4.494;2023-04-01T10:49:34;99951.81;;;11.94;100.00
21111;BME280;10713;51.912;4.494;2023-04-01T10:57:57;99960.78;;;11.91;100.00
21111;BME280;10713;51.912;4.494;2023-04-01T11:23:43;99975.84;;;12.05;100.00
21111;BME280;10713;51.912;4.494;2023-04-01T11:55:55;100019.97;;;11.89;100.00
21111;BME280;10713;51.912;4.494;2023-04-01T12:06:51;100035.56;;;12.24;100.00
21111;BME280;10713;51.912;4.494;2023-04-01T12:12:26;100038.09;;;12.55;100.00
21111;BME280;10713;51.912;4.494;2023-04-01T12:17:52;100043.34;;;12.71;100.00
21111;BME280;10713;51.912;4.494;2023-04-01T12:20:30;100047.97;;;12.68;100.00
21111;BME280;10713;51.912;4.494;2023-04-01T12:30:50;100057.00;;;12.49;100.00
21111;BME280;10713;51.912;4.494;2023-04-01T12:39:22;100071.34;;;12.31;100.00
21111;BME280;10713;51.912;4.494;2023-04-01T12:44:44;100068.94;;;12.26;100.00
21111;BME280;10713;51.912;4.494;2023-04-01T12:55:38;100082.69;;;12.47;100.00
21111;BME280;10713;51.912;4.494;2023-04-01T12:58:52;100083.03;;;12.57;100.00
21111;BME280;10713;51.912;4.494;2023-04-01T13:01:29;100082.81;;;12.46;100.00
21111;BME280;10713;51.912;4.494;2023-04-01T13:22:41;100107.25;;;12.35;100.00
21111;BME280;10713;51.912;4.494;2023-04-01T13:27:51;100122.72;;;12.27;100.00
21111;BME280;10713;51.912;4.494;2023-04-01T13:30:31;100117.00;;;12.34;100.00
21111;BME280;10713;51.912;4.494;2023-04-01T13:33:19;100132.69;;;12.37;100.00
21111;BME280;10713;51.912;4.494;2023-04-01T13:46:44;100136.78;;;12.43;100.00
21111;BME280;10713;51.912;4.494;2023-04-01T13:49:28;100134.28;;;12.70;100.00
21111;BME280;10713;51.912;4.494;2023-04-01T14:01:13;100150.19;;;12.70;100.00
21111;BME280;10713;51.912;4.494;2023-04-01T14:17:55;100163.53;;;12.69;100.00
21111;BME280;10713;51.912;4.494;2023-04-01T14:32:07;100183.41;;;12.46;100.00
21111;BME280;10713;51.912;4.494;2023-04-01T14:40:28;100194.53;;;12.36;100.00
21111;BME280;10713;51.912;4.494;2023-04-01T14:43:10;100198.25;;;12.32;100.00
21111;BME280;10713;51.912;4.494;2023-04-01T14:49:01;100207.06;;;12.33;100.00
21111;BME280;10713;51.912;4.494;2023-04-01T14:54:00;100212.16;;;12.36;100.00
21111;BME280;10713;51.912;4.494;2023-04-01T14:56:40;100207.47;;;12.41;100.00
21111;BME280;10713;51.912;4.494;2023-04-01T15:04:47;100220.81;;;12.39;100.00
21111;BME280;10713;51.912;4.494;2023-04-01T15:16:27;100228.28;;;12.47;100.00
21111;BME280;10713;51.912;4.494;2023-04-01T15:19:38;100234.72;;;12.43;100.00
21111;BME280;10713;51.912;4.494;2023-04-01T15:24:48;100249.81;;;12.41;100.00
21111;BME280;10713;51.912;4.494;2023-04-01T15:27:42;100247.94;;;12.43;100.00
21111;BME280;10713;51.912;4.494;2023-04-01T15:35:44;100266.53;;;12.10;100.00
21111;BME280;10713;51.912;4.494;2023-04-01T15:43:45;100277.66;;;11.83;100.00
21111;BME280;10713;51.912;4.494;2023-04-01T15:46:36;100285.06;;;11.77;100.00
21111;BME280;10713;51.912;4.494;2023-04-01T15:52:01;100290.81;;;11.67;100.00
21111;BME280;10713;51.912;4.494;2023-04-01T15:59:58;100299.69;;;11.66;100.00
21111;BME280;10713;51.912;4.494;2023-04-01T16:02:40;100309.25;;;11.69;100.00
21111;BME280;10713;51.912;4.494;2023-04-01T16:07:59;100315.06;;;11.76;100.00
21111;BME280;10713;51.912;4.494;2023-04-01T16:13:24;100330.47;;;11.67;100.00
21111;BME280;10713;51.912;4.494;2023-04-01T16:23:50;100345.81;;;11.61;100.00
21111;BME280;10713;51.912;4.494;2023-04-01T16:27:18;100349.16;;;11.64;100.00
21111;BME280;10713;51.912;4.494;2023-04-01T16:34:36;100363.31;;;11.63;100.00
21111;BME280;10713;51.912;4.494;2023-04-01T16:37:08;100360.44;;;11.68;100.00
21111;BME280;10713;51.912;4.494;2023-04-01T16:42:40;100376.38;;;11.49;100.00
21111;BME280;10713;51.912;4.494;2023-04-01T16:47:40;100386.16;;;11.30;100.00
21111;BME280;10713;51.912;4.494;2023-04-01T16:50:26;100398.28;;;11.16;100.00
21111;BME280;10713;51.912;4.494;2023-04-01T16:53:09;100401.19;;;11.10;100.00
21111;BME280;10713;51.912;4.494;2023-04-01T16:55:49;100414.13;;;10.97;100.00
21111;BME280;10713;51.912;4.494;2023-04-01T16:58:25;100417.50;;;10.82;100.00
21111;BME280;10713;51.912;4.494;2023-04-01T17:00:58;100425.59;;;10.79;100.00
21111;BME280;10713;51.912;4.494;2023-04-01T17:03:33;100428.97;;;10.81;100.00
21111;BME280;10713;51.912;4.494;2023-04-01T17:06:26;100435.50;;;10.74;100.00
21111;BME280;10713;51.912;4.494;2023-04-01T17:11:22;100443.63;;;10.50;100.00
21111;BME280;10713;51.912;4.494;2023-04-01T17:16:56;100441.44;;;10.40;100.00
21111;BME280;10713;51.912;4.494;2023-04-01T17:19:36;100461.91;;;10.34;100.00
21111;BME280;10713;51.912;4.494;2023-04-01T17:22:19;100472.59;;;10.31;100.00
21111;BME280;10713;51.912;4.494;2023-04-01T17:25:28;100487.63;;;10.29;100.00
21111;BME280;10713;51.912;4.494;2023-04-01T17:28:25;100483.44;;;10.24;100.00
21111;BME280;10713;51.912;4.494;2023-04-01T17:31:21;100492.28;;;10.23;100.00
21111;BME280;10713;51.912;4.494;2023-04-01T17:34:09;100490.59;;;10.22;100.00
21111;BME280;10713;51.912;4.494;2023-04-01T17:37:02;100507.53;;;10.16;100.00
21111;BME280;10713;51.912;4.494;2023-04-01T17:39:38;100507.19;;;10.24;100.00
21111;BME280;10713;51.912;4.494;2023-04-01T17:45:02;100518.66;;;10.23;100.00
21111;BME280;10713;51.912;4.494;2023-04-01T17:53:02;100539.19;;;10.16;100.00
21111;BME280;10713;51.912;4.494;2023-04-01T17:55:42;100539.22;;;10.14;100.00
21111;BME280;10713;51.912;4.494;2023-04-01T17:58:14;100539.38;;;10.11;100.00
21111;BME280;10713;51.912;4.494;2023-04-01T18:20:26;100605.84;;;9.98;100.00
21111;BME280;10713;51.912;4.494;2023-04-01T18:25:43;100616.53;;;9.95;100.00
21111;BME280;10713;51.912;4.494;2023-04-01T18:30:50;100630.09;;;9.85;100.00
21111;BME280;10713;51.912;4.494;2023-04-01T18:33:29;100644.28;;;9.81;100.00
21111;BME280;10713;51.912;4.494;2023-04-01T18:36:17;100642.75;;;9.76;100.00
21111;BME280;10713;51.912;4.494;2023-04-01T18:39:08;100658.69;;;9.73;100.00
21111;BME280;10713;51.912;4.494;2023-04-01T18:41:47;100657.16;;;9.67;100.00
21111;BME280;10713;51.912;4.494;2023-04-01T18:52:43;100680.59;;;9.51;100.00
21111;BME280;10713;51.912;4.494;2023-04-01T18:55:39;100699.91;;;9.52;100.00
21111;BME280;10713;51.912;4.494;2023-04-01T19:00:43;100708.03;;;9.45;100.00
21111;BME280;10713;51.912;4.494;2023-04-01T19:03:52;100715.09;;;9.45;100.00
21111;BME280;10713;51.912;4.494;2023-04-01T19:09:22;100729.22;;;9.42;100.00
21111;BME280;10713;51.912;4.494;2023-04-01T19:11:55;100719.78;;;9.37;100.00
21111;BME280;10713;51.912;4.494;2023-04-01T19:14:47;100734.84;;;9.33;100.00
21111;BME280;10713;51.912;4.494;2023-04-01T19:25:27;100762.88;;;9.34;100.00
21111;BME280;10713;51.912;4.494;2023-04-01T19:30:54;100766.06;;;9.19;100.00
21111;BME280;10713;51.912;4.494;2023-04-01T19:36:36;100773.91;;;9.20;100.00
21111;BME280;10713;51.912;4.494;2023-04-01T19:39:27;100766.13;;;9.17;100.00
21111;BME280;10713;51.912;4.494;2023-04-01T19:42:08;100788.97;;;9.17;100.00
21111;BME280;10713;51.912;4.494;2023-04-01T19:50:55;100808.59;;;9.07;100.00
21111;BME280;10713;51.912;4.494;2023-04-01T19:58:41;100813.25;;;8.98;100.00
21111;BME280;10713;51.912;4.494;2023-04-01T20:01:14;100825.53;;;8.99;100.00
21111;BME280;10713;51.912;4.494;2023-04-01T20:06:24;100839.59;;;8.98;100.00
21111;BME280;10713;51.912;4.494;2023-04-01T20:12:06;100847.97;;;8.85;100.00
21111;BME280;10713;51.912;4.494;2023-04-01T20:14:43;100851.56;;;8.82;100.00
21111;BME280;10713;51.912;4.494;2023-04-01T20:17:32;100852.28;;;8.87;100.00
21111;BME280;10713;51.912;4.494;2023-04-01T20:25:16;100872.34;;;8.90;100.00
21111;BME280;10713;51.912;4.494;2023-04-01T20:27:50;100889.16;;;8.86;100.00
21111;BME280;10713;51.912;4.494;2023-04-01T20:36:39;100904.72;;;8.65;100.00
21111;BME280;10713;51.912;4.494;2023-04-01T20:44:34;100924.44;;;8.50;100.00
21111;BME280;10713;51.912;4.494;2023-04-01T21:01:25;100946.91;;;8.29;100.00
21111;BME280;10713;51.912;4.494;2023-04-01T21:12:00;100965.31;;;8.31;100.00
21111;BME280;10713;51.912;4.494;2023-04-01T21:25:05;101010.38;;;8.17;100.00
21111;BME280;10713;51.912;4.494;2023-04-01T21:28:10;101005.94;;;8.19;100.00
21111;BME280;10713;51.912;4.494;2023-04-01T21:41:30;101039.50;;;8.09;100.00
21111;BME280;10713;51.912;4.494;2023-04-01T21:52:07;101062.56;;;7.98;100.00
21111;BME280;10713;51.912;4.494;2023-04-01T21:58:15;101054.81;;;7.94;100.00
21111;BME280;10713;51.912;4.494;2023-04-01T22:00:24;101066.41;;;7.85;100.00
21111;BME280;10713;51.912;4.494;2023-04-01T22:08:56;101085.44;;;7.95;100.00
21111;BME280;10713;51.912;4.494;2023-04-01T22:16:48;101096.78;;;7.97;100.00
21111;BME280;10713;51.912;4.494;2023-04-01T22:19:35;101098.56;;;7.96;100.00
21111;BME280;10713;51.912;4.494;2023-04-01T22:22:17;101110.94;;;7.91;100.00
21111;BME280;10713;51.912;4.494;2023-04-01T22:27:23;101116.19;;;7.93;100.00
21111;BME280;10713;51.912;4.494;2023-04-01T22:30:17;101124.31;;;7.82;100.00
21111;BME280;10713;51.912;4.494;2023-04-01T22:32:47;101123.56;;;7.75;100.00
21111;BME280;10713;51.912;4.494;2023-04-01T22:41:05;101151.03;;;7.62;100.00
21111;BME280;10713;51.912;4.494;2023-04-01T22:43:43;101146.00;;;7.51;100.00
21111;BME280;10713;51.912;4.494;2023-04-01T22:56:52;101173.28;;;7.45;100.00
21111;BME280;10713;51.912;4.494;2023-04-01T23:02:37;101185.56;;;7.43;100.00
21111;BME280;10713;51.912;4.494;2023-04-01T23:05:10;101184.75;;;7.41;100.00
21111;BME280;10713;51.912;4.494;2023-04-01T23:07:56;101187.34;;;7.43;100.00
21111;BME280;10713;51.912;4.494;2023-04-01T23:13:00;101200.59;;;7.37;100.00
21111;BME280;10713;51.912;4.494;2023-04-01T23:15:28;101206.66;;;7.40;100.00
21111;BME280;10713;51.912;4.494;2023-04-01T23:21:03;101213.81;;;7.32;100.00
21111;BME280;10713;51.912;4.494;2023-04-01T23:23:53;101224.38;;;7.29;100.00